createdAt,value
2022-08-20T00:01:37.348Z,25.80
2022-08-20T00:04:04.970Z,25.80
2022-08-20T00:06:34.221Z,25.80
2022-08-20T00:09:00.898Z,25.80
2022-08-20T00:11:27.613Z,25.80
2022-08-20T00:13:59.813Z,25.80
2022-08-20T00:16:27.581Z,25.80
2022-08-20T00:18:54.337Z,25.80
2022-08-20T00:21:21.399Z,25.80
2022-08-20T00:23:51.000Z,25.80
2022-08-20T00:26:18.723Z,25.80
2022-08-20T00:28:45.991Z,25.80
2022-08-20T00:31:14.288Z,25.80
2022-08-20T00:33:41.026Z,25.80
2022-08-20T00:36:09.435Z,25.80
2022-08-20T00:38:38.033Z,25.80
2022-08-20T00:41:05.184Z,25.80
2022-08-20T00:43:42.078Z,25.70
2022-08-20T00:46:31.343Z,25.80
2022-08-20T00:48:59.081Z,25.80
2022-08-20T00:51:29.875Z,25.70
2022-08-20T00:54:02.098Z,25.80
2022-08-20T00:56:30.622Z,25.80
2022-08-20T00:58:57.313Z,25.80
2022-08-20T01:01:24.939Z,25.80
2022-08-20T01:03:55.375Z,25.80
2022-08-20T01:06:22.656Z,25.70
2022-08-20T01:08:50.134Z,25.70
2022-08-20T01:11:17.993Z,25.70
2022-08-20T01:13:45.600Z,25.70
2022-08-20T01:16:31.534Z,25.70
2022-08-20T01:19:00.358Z,25.70
2022-08-20T01:21:28.440Z,25.70
2022-08-20T01:24:07.181Z,25.70
2022-08-20T01:26:41.568Z,25.70
2022-08-20T01:29:11.118Z,25.70
2022-08-20T01:31:38.646Z,25.70
2022-08-20T01:34:08.198Z,25.70
2022-08-20T01:36:46.642Z,25.70
2022-08-20T01:39:14.787Z,25.70
2022-08-20T01:41:50.012Z,25.70
2022-08-20T01:44:18.497Z,25.70
2022-08-20T01:46:46.708Z,25.70
2022-08-20T01:49:23.029Z,25.70
2022-08-20T01:51:51.383Z,25.70
2022-08-20T01:54:18.221Z,25.70
2022-08-20T01:57:03.752Z,25.70
2022-08-20T01:59:30.580Z,25.70
2022-08-20T02:01:57.984Z,25.70
2022-08-20T02:04:25.221Z,25.70
2022-08-20T02:06:57.685Z,25.70
2022-08-20T02:09:29.323Z,25.70
2022-08-20T02:11:58.958Z,25.70
2022-08-20T02:14:26.802Z,25.70
2022-08-20T02:16:55.422Z,25.70
2022-08-20T02:19:28.865Z,25.70
2022-08-20T02:21:57.270Z,25.70
2022-08-20T02:24:24.278Z,25.70
2022-08-20T02:26:51.253Z,25.70
2022-08-20T02:29:18.276Z,25.70
2022-08-20T02:32:24.546Z,25.70
2022-08-20T02:34:34.665Z,25.70
2022-08-20T02:37:01.953Z,25.70
2022-08-20T02:39:28.636Z,25.70
2022-08-20T02:41:55.380Z,25.80
2022-08-20T02:44:22.102Z,25.80
2022-08-20T02:46:51.941Z,25.70
2022-08-20T02:49:22.365Z,25.70
2022-08-20T02:51:49.680Z,25.70
2022-08-20T02:54:17.355Z,25.70
2022-08-20T02:56:46.423Z,25.70
2022-08-20T02:59:19.753Z,25.70
2022-08-20T03:01:59.322Z,25.80
2022-08-20T03:04:28.843Z,25.80
2022-08-20T03:06:56.318Z,25.80
2022-08-20T03:09:23.005Z,25.80
2022-08-20T03:11:49.723Z,25.80
2022-08-20T03:14:16.467Z,25.80
2022-08-20T03:16:43.226Z,25.80
2022-08-20T03:19:09.924Z,25.80
2022-08-20T03:21:37.215Z,25.80
2022-08-20T03:24:04.059Z,25.80
2022-08-20T03:26:30.737Z,25.80
2022-08-20T03:28:58.195Z,25.80
2022-08-20T03:31:24.895Z,25.80
2022-08-20T03:33:52.776Z,25.80
2022-08-20T03:36:28.232Z,25.80
2022-08-20T03:39:00.486Z,25.80
2022-08-20T03:41:29.479Z,25.70
2022-08-20T03:43:56.255Z,25.80
2022-08-20T03:46:23.920Z,25.80
2022-08-20T03:49:00.203Z,25.80
2022-08-20T03:51:30.784Z,25.80
2022-08-20T03:53:57.688Z,25.80
2022-08-20T03:56:24.966Z,25.80
2022-08-20T03:58:51.639Z,25.80
2022-08-20T04:01:44.543Z,25.80
2022-08-20T04:04:06.193Z,25.80
2022-08-20T04:06:39.763Z,25.80
2022-08-20T04:09:07.856Z,25.80
2022-08-20T04:11:37.539Z,25.80
2022-08-20T04:14:05.301Z,25.80
2022-08-20T04:16:33.074Z,25.80
2022-08-20T04:19:02.019Z,25.80
2022-08-20T04:21:32.582Z,25.80
2022-08-20T04:24:01.015Z,25.80
2022-08-20T04:26:27.871Z,25.80
2022-08-20T04:28:55.698Z,25.80
2022-08-20T04:31:25.403Z,25.70
2022-08-20T04:33:52.598Z,25.80
2022-08-20T04:36:20.126Z,25.70
2022-08-20T04:38:49.746Z,25.80
2022-08-20T04:41:22.571Z,25.80
2022-08-20T04:43:51.629Z,25.80
2022-08-20T04:46:19.318Z,25.80
2022-08-20T04:48:48.691Z,25.80
2022-08-20T04:51:17.930Z,25.70
2022-08-20T04:53:51.688Z,25.80
2022-08-20T04:56:23.384Z,25.80
2022-08-20T04:58:51.085Z,25.80
2022-08-20T05:01:18.082Z,25.80
2022-08-20T05:03:48.222Z,25.80
2022-08-20T05:06:16.213Z,25.80
2022-08-20T05:08:43.013Z,25.80
2022-08-20T05:11:33.033Z,25.80
2022-08-20T05:13:57.074Z,25.80
2022-08-20T05:16:25.726Z,25.80
2022-08-20T05:18:53.056Z,25.80
2022-08-20T05:21:20.729Z,25.80
2022-08-20T05:23:47.498Z,25.80
2022-08-20T05:26:15.935Z,25.80
2022-08-20T05:28:57.075Z,25.90
2022-08-20T05:31:31.777Z,25.90
2022-08-20T05:34:09.561Z,26.00
2022-08-20T05:36:40.811Z,26.00
2022-08-20T05:39:08.936Z,26.00
2022-08-20T05:41:36.336Z,25.90
2022-08-20T05:44:03.581Z,26.00
2022-08-20T05:46:31.930Z,25.90
2022-08-20T05:49:00.053Z,26.00
2022-08-20T05:51:28.229Z,26.00
2022-08-20T05:53:55.107Z,26.00
2022-08-20T05:56:26.849Z,26.00
2022-08-20T05:58:54.792Z,26.00
2022-08-20T06:01:21.550Z,26.00
2022-08-20T06:04:07.830Z,26.10
2022-08-20T06:06:44.873Z,26.10
2022-08-20T06:09:14.106Z,26.10
2022-08-20T06:11:40.786Z,26.10
2022-08-20T06:14:07.535Z,26.10
2022-08-20T06:16:34.854Z,26.10
2022-08-20T06:19:04.521Z,26.10
2022-08-20T06:21:31.548Z,26.10
2022-08-20T06:24:00.976Z,26.20
2022-08-20T06:26:30.046Z,26.20
2022-08-20T06:29:04.523Z,26.40
2022-08-20T06:31:31.247Z,26.60
2022-08-20T06:33:57.982Z,26.20
2022-08-20T06:36:25.751Z,25.90
2022-08-20T06:38:54.900Z,25.60
2022-08-20T06:41:21.648Z,25.50
2022-08-20T06:43:49.673Z,25.40
2022-08-20T06:46:16.348Z,25.30
2022-08-20T06:48:43.034Z,25.20
2022-08-20T06:51:10.326Z,25.30
2022-08-20T06:53:37.263Z,25.20
2022-08-20T06:56:04.490Z,25.30
2022-08-20T06:58:37.728Z,25.30
2022-08-20T07:01:09.960Z,25.30
2022-08-20T07:03:54.768Z,25.30
2022-08-20T07:06:25.397Z,25.30
2022-08-20T07:08:52.581Z,25.40
2022-08-20T07:11:23.751Z,25.40
2022-08-20T07:13:54.457Z,25.40
2022-08-20T07:16:21.126Z,25.50
2022-08-20T07:18:47.954Z,25.50
2022-08-20T07:21:15.766Z,25.60
2022-08-20T07:23:42.435Z,25.70
2022-08-20T07:26:09.186Z,25.70
2022-08-20T07:28:35.901Z,25.70
2022-08-20T07:31:21.371Z,25.70
2022-08-20T07:33:50.325Z,25.70
2022-08-20T07:36:17.664Z,25.80
2022-08-20T07:38:47.004Z,25.80
2022-08-20T07:41:14.810Z,25.80
2022-08-20T07:43:42.384Z,25.80
2022-08-20T07:46:10.167Z,25.70
2022-08-20T07:48:40.227Z,25.80
2022-08-20T07:51:08.578Z,25.80
2022-08-20T07:53:40.310Z,25.80
2022-08-20T07:56:13.345Z,25.90
2022-08-20T07:58:50.456Z,25.90
2022-08-20T08:01:17.951Z,25.90
2022-08-20T08:03:50.184Z,26.00
2022-08-20T08:06:29.990Z,26.00
2022-08-20T08:09:13.627Z,26.00
2022-08-20T08:11:47.208Z,26.00
2022-08-20T08:14:14.896Z,26.10
2022-08-20T08:16:45.241Z,26.20
2022-08-20T08:19:14.284Z,26.20
2022-08-20T08:21:41.429Z,26.20
2022-08-20T08:24:10.425Z,26.20
2022-08-20T08:26:37.521Z,26.30
2022-08-20T08:29:07.304Z,26.30
2022-08-20T08:31:36.636Z,26.40
2022-08-20T08:34:03.609Z,26.30
2022-08-20T08:36:30.754Z,26.40
2022-08-20T08:38:59.971Z,26.40
2022-08-20T08:41:29.504Z,26.40
2022-08-20T08:43:59.750Z,26.40
2022-08-20T08:46:27.249Z,26.40
2022-08-20T08:48:57.796Z,26.40
2022-08-20T08:51:30.279Z,26.40
2022-08-20T08:53:58.185Z,26.40
2022-08-20T08:56:26.662Z,26.50
2022-08-20T08:58:55.606Z,26.40
2022-08-20T09:01:55.465Z,26.50
2022-08-20T09:04:10.277Z,26.40
2022-08-20T09:06:37.084Z,26.50
2022-08-20T09:09:04.856Z,26.40
2022-08-20T09:11:45.138Z,26.40
2022-08-20T09:14:11.846Z,26.40
2022-08-20T09:16:44.727Z,26.40
2022-08-20T09:19:20.371Z,26.40
2022-08-20T09:21:47.207Z,26.50
2022-08-20T09:24:13.926Z,26.50
2022-08-20T09:26:40.623Z,26.50
2022-08-20T09:29:07.833Z,26.50
2022-08-20T09:31:35.574Z,26.50
2022-08-20T09:34:05.377Z,26.60
2022-08-20T09:36:33.135Z,26.60
2022-08-20T09:39:00.778Z,26.50
2022-08-20T09:41:30.381Z,26.40
2022-08-20T09:43:57.121Z,26.50
2022-08-20T09:46:27.046Z,26.50
2022-08-20T09:48:54.588Z,26.60
2022-08-20T09:51:21.354Z,26.50
2022-08-20T09:53:50.968Z,26.60
2022-08-20T09:56:18.028Z,26.60
2022-08-20T09:58:49.495Z,26.60
2022-08-20T10:01:17.774Z,26.60
2022-08-20T10:03:47.941Z,26.60
2022-08-20T10:06:16.589Z,26.60
2022-08-20T10:08:43.658Z,26.60
2022-08-20T10:11:10.387Z,26.60
2022-08-20T10:13:37.081Z,26.60
2022-08-20T10:16:04.448Z,26.60
2022-08-20T10:18:31.172Z,26.60
2022-08-20T10:20:57.856Z,26.70
2022-08-20T10:23:25.483Z,26.60
2022-08-20T10:25:52.181Z,26.70
2022-08-20T10:28:18.966Z,26.60
2022-08-20T10:30:45.643Z,26.60
2022-08-20T10:33:12.475Z,26.60
2022-08-20T10:35:39.145Z,26.60
2022-08-20T10:38:07.253Z,26.60
2022-08-20T10:40:33.994Z,26.60
2022-08-20T10:43:00.906Z,26.70
2022-08-20T10:45:28.546Z,26.70
2022-08-20T10:47:58.613Z,26.70
2022-08-20T10:50:25.701Z,26.60
2022-08-20T10:52:59.357Z,26.60
2022-08-20T10:55:26.383Z,26.80
2022-08-20T10:57:53.081Z,26.80
2022-08-20T11:00:20.581Z,26.80
2022-08-20T11:02:47.318Z,26.80
2022-08-20T11:05:14.095Z,26.80
2022-08-20T11:07:50.014Z,26.80
2022-08-20T11:10:25.022Z,26.80
2022-08-20T11:12:53.601Z,26.80
2022-08-20T11:15:20.271Z,26.80
2022-08-20T11:17:47.167Z,26.80
2022-08-20T11:20:15.002Z,26.80
2022-08-20T11:22:41.739Z,26.70
2022-08-20T11:25:09.431Z,26.80
2022-08-20T11:27:39.113Z,26.80
2022-08-20T11:30:07.141Z,26.90
2022-08-20T11:32:33.846Z,26.90
2022-08-20T11:35:00.582Z,26.90
2022-08-20T11:37:27.750Z,26.90
2022-08-20T11:39:54.520Z,26.90
2022-08-20T11:42:21.321Z,26.80
2022-08-20T11:44:48.011Z,26.90
2022-08-20T11:47:22.701Z,26.80
2022-08-20T11:49:56.444Z,26.70
2022-08-20T11:52:24.699Z,26.70
2022-08-20T11:54:55.143Z,26.60
2022-08-20T11:57:23.078Z,26.70
2022-08-20T11:59:50.889Z,26.60
2022-08-20T12:02:17.716Z,26.60
2022-08-20T12:04:44.499Z,26.70
2022-08-20T12:07:12.091Z,26.70
2022-08-20T12:09:40.108Z,26.70
2022-08-20T12:12:14.749Z,26.70
2022-08-20T12:14:41.476Z,26.70
2022-08-20T12:17:09.197Z,26.70
2022-08-20T12:19:39.874Z,26.70
2022-08-20T12:22:21.250Z,26.70
2022-08-20T12:24:52.081Z,26.70
2022-08-20T12:27:23.613Z,26.70
2022-08-20T12:29:54.634Z,26.70
2022-08-20T12:32:21.948Z,26.70
2022-08-20T12:34:49.008Z,26.70
2022-08-20T12:37:20.438Z,26.70
2022-08-20T12:39:48.843Z,26.70
2022-08-20T12:42:16.276Z,26.70
2022-08-20T12:44:43.996Z,26.60
2022-08-20T12:47:12.476Z,26.60
2022-08-20T12:49:41.273Z,26.60
2022-08-20T12:52:09.582Z,26.60
2022-08-20T12:54:38.054Z,26.60
2022-08-20T12:57:07.202Z,26.60
2022-08-20T12:59:34.853Z,26.60
2022-08-20T13:02:13.952Z,26.70
2022-08-20T13:04:46.883Z,26.70
2022-08-20T13:07:14.084Z,26.60
2022-08-20T13:09:40.956Z,26.60
2022-08-20T13:12:08.026Z,26.60
2022-08-20T13:14:34.899Z,26.60
2022-08-20T13:17:01.861Z,26.70
2022-08-20T13:19:30.167Z,26.60
2022-08-20T13:21:56.946Z,26.60
2022-08-20T13:24:23.991Z,26.50
2022-08-20T13:26:50.909Z,26.50
2022-08-20T13:29:17.942Z,26.50
2022-08-20T13:31:44.730Z,26.50
2022-08-20T13:34:11.941Z,26.50
2022-08-20T13:36:38.769Z,26.50
2022-08-20T13:39:06.543Z,26.40
2022-08-20T13:41:34.959Z,26.50
2022-08-20T13:44:01.655Z,26.50
2022-08-20T13:46:28.347Z,26.50
2022-08-20T13:48:56.031Z,26.50
2022-08-20T13:51:22.803Z,26.50
2022-08-20T13:53:54.336Z,26.50
2022-08-20T13:56:21.801Z,26.40
2022-08-20T13:58:48.779Z,26.40
2022-08-20T14:01:19.722Z,26.40
2022-08-20T14:03:48.604Z,26.40
2022-08-20T14:06:15.254Z,26.40
2022-08-20T14:08:41.964Z,26.40
2022-08-20T14:11:12.789Z,26.40
2022-08-20T14:13:44.329Z,26.40
2022-08-20T14:16:21.095Z,26.40
2022-08-20T14:18:52.988Z,26.50
2022-08-20T14:21:19.759Z,26.50
2022-08-20T14:23:46.451Z,26.40
2022-08-20T14:26:13.217Z,26.40
2022-08-20T14:28:39.933Z,26.50
2022-08-20T14:31:06.717Z,26.40
2022-08-20T14:33:33.404Z,26.50
2022-08-20T14:36:00.094Z,26.40
2022-08-20T14:38:26.850Z,26.40
2022-08-20T14:40:53.620Z,26.40
2022-08-20T14:43:24.106Z,26.40
2022-08-20T14:45:50.777Z,26.40
2022-08-20T14:48:17.614Z,26.40
2022-08-20T14:50:45.414Z,26.40
2022-08-20T14:53:12.119Z,26.40
2022-08-20T14:55:38.904Z,26.40
2022-08-20T14:58:09.636Z,26.40
2022-08-20T15:00:36.640Z,26.30
2022-08-20T15:03:03.452Z,26.30
2022-08-20T15:05:31.292Z,26.30
2022-08-20T15:07:59.315Z,26.30
2022-08-20T15:10:28.093Z,26.40
2022-08-20T15:12:56.320Z,26.30
2022-08-20T15:15:24.021Z,26.30
2022-08-20T15:17:55.071Z,26.40
2022-08-20T15:20:23.781Z,26.30
2022-08-20T15:22:51.274Z,26.40
2022-08-20T15:25:21.543Z,26.40
2022-08-20T15:27:48.333Z,26.40
2022-08-20T15:30:17.235Z,26.40
2022-08-20T15:32:44.060Z,26.50
2022-08-20T15:35:13.174Z,26.60
2022-08-20T15:37:41.808Z,26.60
2022-08-20T15:40:09.962Z,26.60
2022-08-20T15:42:38.264Z,26.60
2022-08-20T15:45:06.497Z,26.60
2022-08-20T15:47:37.279Z,26.60
2022-08-20T15:50:13.852Z,26.60
2022-08-20T15:52:43.063Z,26.70
2022-08-20T15:55:13.786Z,26.70
2022-08-20T15:57:47.936Z,26.60
2022-08-20T16:00:20.288Z,26.70
2022-08-20T16:02:59.151Z,26.60
2022-08-20T16:05:42.813Z,26.60
2022-08-20T16:08:27.890Z,26.60
2022-08-20T16:11:05.306Z,26.60
2022-08-20T16:13:44.936Z,26.60
2022-08-20T16:16:18.022Z,26.60
2022-08-20T16:18:47.635Z,26.60
2022-08-20T16:21:16.653Z,26.60
2022-08-20T16:23:45.336Z,26.60
2022-08-20T16:26:14.866Z,26.60
2022-08-20T16:28:47.736Z,26.60
2022-08-20T16:31:17.284Z,26.50
2022-08-20T16:34:03.381Z,26.50
2022-08-20T16:36:37.539Z,26.50
2022-08-20T16:39:17.338Z,26.60
2022-08-20T16:41:45.260Z,26.50
2022-08-20T16:44:31.411Z,26.50
2022-08-20T16:47:01.331Z,26.50
2022-08-20T16:49:46.460Z,26.40
2022-08-20T16:52:13.149Z,26.40
2022-08-20T16:54:43.128Z,26.50
2022-08-20T16:57:17.036Z,26.40
2022-08-20T17:00:02.637Z,26.40
2022-08-20T17:02:29.365Z,26.40
2022-08-20T17:04:59.572Z,26.40
2022-08-20T17:07:33.197Z,26.40
2022-08-20T17:10:29.340Z,26.40
2022-08-20T17:13:01.856Z,26.30
2022-08-20T17:15:33.709Z,26.40
2022-08-20T17:18:19.537Z,26.30
2022-08-20T17:20:46.256Z,26.30
2022-08-20T17:23:17.949Z,26.40
2022-08-20T17:26:00.520Z,26.40
2022-08-20T17:28:29.873Z,26.50
2022-08-20T17:30:59.946Z,26.60
2022-08-20T17:33:33.223Z,26.60
2022-08-20T17:36:11.435Z,26.50
2022-08-20T17:38:40.794Z,26.50
2022-08-20T17:41:12.840Z,26.40
2022-08-20T17:43:43.865Z,26.40
2022-08-20T17:46:11.760Z,26.40
2022-08-20T17:48:48.408Z,26.30
2022-08-20T17:51:19.640Z,26.30
2022-08-20T17:53:58.918Z,26.30
2022-08-20T17:56:32.964Z,26.30
2022-08-20T17:59:05.964Z,26.30
2022-08-20T18:01:33.468Z,26.30
2022-08-20T18:04:00.192Z,26.30
2022-08-20T18:06:35.060Z,26.20
2022-08-20T18:09:04.848Z,26.30
2022-08-20T18:11:45.637Z,26.30
2022-08-20T18:14:26.131Z,26.20
2022-08-20T18:17:00.639Z,26.20
2022-08-20T18:19:33.442Z,26.20
2022-08-20T18:22:10.639Z,26.20
2022-08-20T18:24:40.830Z,26.20
2022-08-20T18:27:11.333Z,26.20
2022-08-20T18:29:41.147Z,26.20
2022-08-20T18:32:19.845Z,26.20
2022-08-20T18:34:48.213Z,26.20
2022-08-20T18:37:14.883Z,26.20
2022-08-20T18:39:43.658Z,26.20
2022-08-20T18:42:29.112Z,26.20
2022-08-20T18:44:57.443Z,26.20
2022-08-20T18:47:40.303Z,26.20
2022-08-20T18:50:16.079Z,26.20
2022-08-20T18:52:46.577Z,26.20
2022-08-20T18:55:26.948Z,26.20
2022-08-20T18:57:55.444Z,26.20
2022-08-20T19:00:23.869Z,26.20
2022-08-20T19:02:55.845Z,26.20
2022-08-20T19:05:40.268Z,26.20
2022-08-20T19:08:07.871Z,26.20
2022-08-20T19:10:40.837Z,26.20
2022-08-20T19:13:16.273Z,26.20
2022-08-20T19:15:45.867Z,26.30
2022-08-20T19:18:20.762Z,26.20
2022-08-20T19:20:57.770Z,26.20
2022-08-20T19:23:26.200Z,26.20
2022-08-20T19:25:55.779Z,26.20
2022-08-20T19:28:28.791Z,26.20
2022-08-20T19:30:55.898Z,26.20
2022-08-20T19:33:43.866Z,26.20
2022-08-20T19:36:14.223Z,26.20
2022-08-20T19:38:49.866Z,26.20
2022-08-20T19:41:31.097Z,26.20
2022-08-20T19:43:59.828Z,26.20
2022-08-20T19:46:53.098Z,26.20
2022-08-20T19:49:19.809Z,26.20
2022-08-20T19:51:48.087Z,26.20
2022-08-20T19:54:27.394Z,26.20
2022-08-20T19:56:58.482Z,26.20
2022-08-20T19:59:25.622Z,26.20
2022-08-20T20:02:03.878Z,26.20
2022-08-20T20:04:55.085Z,26.20
2022-08-20T20:07:24.938Z,26.20
2022-08-20T20:09:53.838Z,26.10
2022-08-20T20:12:22.959Z,26.20
2022-08-20T20:14:50.907Z,26.20
2022-08-20T20:17:22.979Z,26.20
2022-08-20T20:19:54.093Z,26.20
2022-08-20T20:22:26.281Z,26.20
2022-08-20T20:25:12.200Z,26.20
2022-08-20T20:27:38.990Z,26.20
2022-08-20T20:30:08.232Z,26.20
2022-08-20T20:32:38.889Z,26.10
2022-08-20T20:35:06.360Z,26.20
2022-08-20T20:37:49.115Z,26.20
2022-08-20T20:40:23.192Z,26.20
2022-08-20T20:43:04.420Z,26.20
2022-08-20T20:45:43.653Z,26.20
2022-08-20T20:48:33.104Z,26.20
2022-08-20T20:51:01.198Z,26.20
2022-08-20T20:53:53.335Z,26.10
2022-08-20T20:56:41.889Z,26.10
2022-08-20T20:59:09.258Z,26.10
2022-08-20T21:01:49.529Z,26.10
2022-08-20T21:04:18.190Z,26.10
2022-08-20T21:06:44.920Z,26.10
2022-08-20T21:09:12.028Z,26.20
2022-08-20T21:11:38.736Z,26.30
2022-08-20T21:14:05.518Z,26.20
2022-08-20T21:16:32.246Z,26.30
2022-08-20T21:18:58.993Z,26.20
2022-08-20T21:21:25.740Z,26.20
2022-08-20T21:23:52.408Z,26.20
2022-08-20T21:26:19.220Z,26.20
2022-08-20T21:28:45.944Z,26.20
2022-08-20T21:31:13.136Z,26.20
2022-08-20T21:33:40.633Z,26.20
2022-08-20T21:36:07.456Z,26.20
2022-08-20T21:38:34.131Z,26.20
2022-08-20T21:41:00.920Z,26.20
2022-08-20T21:43:32.662Z,26.20
2022-08-20T21:46:01.423Z,26.20
2022-08-20T21:48:29.085Z,26.20
2022-08-20T21:50:55.751Z,26.20
2022-08-20T21:53:23.580Z,26.20
2022-08-20T21:55:51.289Z,26.20
2022-08-20T21:58:18.182Z,26.20
2022-08-20T22:00:47.934Z,26.20
2022-08-20T22:03:15.217Z,26.20
2022-08-20T22:05:42.359Z,26.20
2022-08-20T22:08:10.438Z,26.10
2022-08-20T22:10:37.636Z,26.20
2022-08-20T22:13:04.738Z,26.20
2022-08-20T22:15:33.951Z,26.20
2022-08-20T22:18:00.692Z,26.20
2022-08-20T22:20:27.639Z,26.10
2022-08-20T22:22:54.383Z,26.10
2022-08-20T22:25:21.050Z,26.10
2022-08-20T22:27:47.739Z,26.10
2022-08-20T22:30:14.583Z,26.10
2022-08-20T22:33:01.259Z,26.20
2022-08-20T22:35:28.251Z,26.20
2022-08-20T22:37:54.978Z,26.10
2022-08-20T22:40:22.132Z,26.10
2022-08-20T22:42:49.300Z,26.10
2022-08-20T22:45:16.189Z,26.10
2022-08-20T22:47:43.132Z,26.10
2022-08-20T22:50:11.742Z,26.10
2022-08-20T22:52:39.190Z,26.10
2022-08-20T22:55:07.142Z,26.10
2022-08-20T22:57:37.272Z,26.10
2022-08-20T23:00:11.452Z,26.10
2022-08-20T23:02:39.430Z,26.10
2022-08-20T23:05:06.347Z,26.10
2022-08-20T23:07:33.989Z,26.10
2022-08-20T23:10:01.330Z,26.10
2022-08-20T23:12:27.990Z,26.10
2022-08-20T23:14:54.952Z,26.10
2022-08-20T23:17:24.018Z,26.20
2022-08-20T23:19:51.225Z,26.10
2022-08-20T23:22:18.210Z,26.20
2022-08-20T23:24:46.975Z,26.20
2022-08-20T23:27:16.157Z,26.20
2022-08-20T23:29:43.010Z,26.10
2022-08-20T23:32:10.365Z,26.10
2022-08-20T23:34:37.095Z,26.20
2022-08-20T23:37:04.250Z,26.10
2022-08-20T23:39:31.467Z,26.10
2022-08-20T23:41:58.748Z,26.10
2022-08-20T23:44:27.045Z,26.10
2022-08-20T23:46:59.960Z,26.10
2022-08-20T23:49:27.492Z,26.10
2022-08-20T23:51:54.379Z,26.10
2022-08-20T23:54:21.131Z,26.10
2022-08-20T23:56:47.816Z,26.10
2022-08-20T23:59:14.480Z,26.10
